Time;durP1;ratioP1;P1;durP2;ratioP2;P2;SDS_P1;SDS_P2;PMS_P1;PMS_P2;Temp;Humidity;BMP_temperature;BMP_pressure;BME280_temperature;BME280_humidity;BME280_pressure;Samples;Min_cycle;Max_cycle;Signal;HPM_P1;HPM_P2
2021/01/15 00:01:37;;;;;;;3.80;2.67;;;2.00;99.90;;;;;;5032136;28;20111;-67
2021/01/15 00:04:04;;;;;;;5.38;2.88;;;2.00;99.90;;;;;;5031143;28;20128;-67
2021/01/15 00:06:30;;;;;;;4.80;2.67;;;1.90;99.90;;;;;;5031654;28;20412;-68
2021/01/15 00:08:56;;;;;;;3.25;2.20;;;2.00;99.90;;;;;;5032204;28;20368;-68
2021/01/15 00:11:25;;;;;;;11.02;3.15;;;1.90;99.90;;;;;;5031728;28;20033;-68
2021/01/15 00:13:52;;;;;;;5.80;2.67;;;2.00;99.90;;;;;;5032262;28;20029;-68
2021/01/15 00:16:22;;;;;;;7.75;2.72;;;2.00;99.90;;;;;;5030316;28;20029;-68
2021/01/15 00:18:49;;;;;;;4.20;3.20;;;1.90;99.90;;;;;;5031031;28;20031;-68
2021/01/15 00:21:23;;;;;;;4.05;2.83;;;1.80;99.90;;;;;;5046852;28;20037;-68
2021/01/15 00:23:50;;;;;;;4.10;2.47;;;2.00;99.90;;;;;;5032248;28;20036;-69
2021/01/15 00:26:17;;;;;;;5.85;3.28;;;1.90;99.90;;;;;;5032036;28;20471;-70
2021/01/15 00:28:43;;;;;;;4.13;2.45;;;2.00;99.90;;;;;;5030835;28;20022;-68
2021/01/15 00:31:09;;;;;;;6.45;2.47;;;1.80;99.90;;;;;;5030817;28;20140;-68
2021/01/15 00:33:35;;;;;;;5.88;3.15;;;1.90;99.90;;;;;;5031030;28;20057;-69
2021/01/15 00:36:00;;;;;;;3.85;3.00;;;1.90;99.90;;;;;;5032116;28;20050;-68
2021/01/15 00:38:26;;;;;;;5.60;2.80;;;1.80;99.90;;;;;;5030416;28;20021;-69
2021/01/15 00:41:06;;;;;;;6.30;2.40;;;1.80;99.90;;;;;;5031095;28;20025;-68
2021/01/15 00:43:32;;;;;;;4.90;3.20;;;1.80;99.90;;;;;;5046804;28;20029;-69
2021/01/15 00:45:58;;;;;;;4.32;2.30;;;1.80;99.90;;;;;;5030355;28;20113;-70
2021/01/15 00:48:24;;;;;;;4.80;1.98;;;1.80;99.90;;;;;;5030179;28;20091;-69
2021/01/15 00:50:50;;;;;;;4.90;2.25;;;1.70;99.90;;;;;;5046983;28;20045;-68
2021/01/15 00:53:16;;;;;;;4.75;3.13;;;1.80;99.90;;;;;;5030588;28;20068;-68
2021/01/15 00:55:42;;;;;;;4.50;2.65;;;1.70;99.90;;;;;;5029815;28;20029;-68
2021/01/15 00:58:11;;;;;;;3.40;1.98;;;1.70;99.90;;;;;;5030121;28;20471;-69
2021/01/15 01:00:37;;;;;;;5.00;3.05;;;1.70;99.90;;;;;;5029030;28;20060;-69
2021/01/15 01:03:05;;;;;;;6.60;2.35;;;1.70;99.90;;;;;;5031076;28;20029;-68
2021/01/15 01:05:31;;;;;;;6.00;2.40;;;1.60;99.90;;;;;;5029476;28;20039;-69
2021/01/15 01:07:57;;;;;;;4.32;2.50;;;1.70;99.90;;;;;;5030193;28;20021;-68
2021/01/15 01:10:23;;;;;;;4.32;2.63;;;1.70;99.90;;;;;;5029324;28;20094;-69
2021/01/15 01:12:48;;;;;;;3.67;2.63;;;1.60;99.90;;;;;;5029930;28;20101;-69
2021/01/15 01:15:14;;;;;;;3.65;2.22;;;1.70;99.90;;;;;;5031031;28;20166;-68
2021/01/15 01:17:41;;;;;;;4.53;2.40;;;1.60;99.90;;;;;;5028745;28;20032;-68
2021/01/15 01:20:08;;;;;;;4.43;2.63;;;1.60;99.90;;;;;;5029226;28;20372;-68
2021/01/15 01:22:34;;;;;;;4.35;2.25;;;1.60;99.90;;;;;;5029083;28;20034;-70
2021/01/15 01:25:00;;;;;;;4.82;2.85;;;1.60;99.90;;;;;;5029837;28;20029;-68
2021/01/15 01:27:26;;;;;;;4.28;2.30;;;1.60;99.90;;;;;;5030526;28;20029;-68
2021/01/15 01:29:51;;;;;;;4.25;2.30;;;1.50;99.90;;;;;;5046454;28;20037;-68
2021/01/15 01:32:17;;;;;;;4.72;2.88;;;1.40;99.90;;;;;;5029522;28;20525;-69
2021/01/15 01:34:42;;;;;;;3.42;2.25;;;1.40;99.90;;;;;;5029952;28;20441;-68
2021/01/15 01:37:08;;;;;;;4.53;2.65;;;1.40;99.90;;;;;;5046379;28;20041;-68
2021/01/15 01:39:34;;;;;;;4.57;2.38;;;1.50;99.90;;;;;;5030643;28;20041;-69
2021/01/15 01:41:59;;;;;;;3.63;2.03;;;1.50;99.90;;;;;;5029804;28;20029;-69
2021/01/15 01:44:25;;;;;;;2.42;1.65;;;1.50;99.90;;;;;;5030203;28;20045;-69
2021/01/15 01:46:52;;;;;;;3.97;1.95;;;1.60;99.90;;;;;;5049824;28;20028;-69
2021/01/15 01:49:19;;;;;;;4.82;2.30;;;1.50;99.90;;;;;;5034819;28;20032;-68
2021/01/15 01:51:47;;;;;;;2.95;2.10;;;1.60;99.90;;;;;;5034157;28;20112;-68
2021/01/15 01:54:13;;;;;;;5.38;2.63;;;1.60;99.90;;;;;;5034566;28;20379;-68
2021/01/15 01:56:40;;;;;;;3.72;2.28;;;1.60;99.90;;;;;;5032765;28;20022;-68
2021/01/15 01:59:07;;;;;;;3.13;1.60;;;1.60;99.90;;;;;;5034473;28;20033;-68
2021/01/15 02:01:33;;;;;;;2.20;1.67;;;1.60;99.90;;;;;;5034174;28;20029;-68
2021/01/15 02:04:03;;;;;;;3.05;2.17;;;1.60;99.90;;;;;;5034304;28;20454;-68
2021/01/15 02:06:31;;;;;;;3.28;1.58;;;1.50;99.90;;;;;;5032730;28;20025;-68
2021/01/15 02:08:57;;;;;;;3.83;2.20;;;1.50;99.90;;;;;;5034123;28;20084;-68
2021/01/15 02:11:57;;;;;;;5.80;1.88;;;1.60;99.90;;;;;;5049450;28;20030;-69
2021/01/15 02:14:54;;;;;;;2.75;1.75;;;1.60;99.90;;;;;;5033751;28;20022;-68
2021/01/15 02:17:25;;;;;;;5.68;1.95;;;1.60;99.90;;;;;;5032509;28;20469;-68
2021/01/15 02:19:59;;;;;;;7.78;2.17;;;1.70;99.70;;;;;;5013407;28;20113;-68
2021/01/15 02:22:46;;;;;;;5.82;1.75;;;1.50;99.90;;;;;;5029213;28;20041;-68
2021/01/15 02:25:33;;;;;;;5.75;2.17;;;1.50;99.90;;;;;;5014890;28;20041;-68
2021/01/15 02:28:07;;;;;;;4.38;2.30;;;1.40;99.90;;;;;;5014706;28;20029;-69
2021/01/15 02:30:58;;;;;;;5.03;3.15;;;1.50;99.90;;;;;;5013735;28;20516;-69
2021/01/15 02:33:28;;;;;;;4.63;2.60;;;1.40;99.90;;;;;;5012365;28;20037;-69
2021/01/15 02:36:21;;;;;;;5.28;3.03;;;1.30;99.90;;;;;;5014428;28;20068;-69
2021/01/15 02:39:28;;;;;;;5.20;2.80;;;1.40;99.90;;;;;;5026402;28;20029;-69
2021/01/15 02:41:57;;;;;;;4.95;3.13;;;1.30;99.90;;;;;;5022815;28;20045;-69
2021/01/15 02:44:24;;;;;;;5.95;4.15;;;1.20;99.90;;;;;;5033273;28;20029;-69
2021/01/15 02:47:00;;;;;;;5.70;2.88;;;1.30;99.90;;;;;;5032504;28;20029;-70
2021/01/15 02:49:26;;;;;;;3.60;2.55;;;1.40;99.90;;;;;;5030647;28;20029;-68
2021/01/15 02:51:53;;;;;;;7.20;3.25;;;1.20;99.90;;;;;;5032293;28;20083;-69
2021/01/15 02:54:20;;;;;;;5.60;3.17;;;1.30;99.90;;;;;;5033888;28;20036;-68
2021/01/15 02:56:45;;;;;;;4.68;2.80;;;1.40;99.90;;;;;;5046993;28;20079;-69
2021/01/15 02:59:11;;;;;;;6.43;3.83;;;1.30;99.90;;;;;;5033065;28;20025;-69
2021/01/15 03:01:42;;;;;;;7.93;3.92;;;1.30;99.90;;;;;;5031398;28;20124;-69
2021/01/15 03:04:21;;;;;;;6.63;3.65;;;1.40;99.90;;;;;;5048676;28;20045;-68
2021/01/15 03:06:53;;;;;;;4.93;3.38;;;1.50;99.90;;;;;;5032679;28;20554;-68
2021/01/15 03:09:19;;;;;;;5.95;3.47;;;1.40;99.90;;;;;;5033299;28;20075;-68
2021/01/15 03:11:46;;;;;;;5.90;3.60;;;1.40;99.90;;;;;;5032049;28;20030;-68
2021/01/15 03:14:14;;;;;;;8.13;4.05;;;1.40;99.90;;;;;;5032800;28;20025;-68
2021/01/15 03:16:43;;;;;;;7.65;4.45;;;1.60;99.90;;;;;;5031122;28;20075;-68
2021/01/15 03:19:09;;;;;;;5.35;3.72;;;1.70;99.90;;;;;;5033317;28;20017;-68
2021/01/15 03:21:37;;;;;;;7.43;4.72;;;1.50;99.90;;;;;;5029883;28;20363;-68
2021/01/15 03:24:04;;;;;;;6.90;4.32;;;1.60;99.90;;;;;;5031769;28;20037;-68
2021/01/15 03:26:30;;;;;;;5.95;4.53;;;1.50;99.90;;;;;;5033092;28;20026;-68
2021/01/15 03:28:56;;;;;;;6.10;4.45;;;1.50;99.90;;;;;;5031761;28;20022;-69
2021/01/15 03:31:21;;;;;;;9.43;5.40;;;1.50;99.90;;;;;;5033199;28;20103;-68
2021/01/15 03:33:47;;;;;;;9.38;5.30;;;1.60;99.90;;;;;;5047134;28;20034;-68
2021/01/15 03:36:13;;;;;;;8.52;4.60;;;1.70;99.90;;;;;;5048110;28;20176;-68
2021/01/15 03:38:39;;;;;;;8.05;5.13;;;1.70;99.90;;;;;;5031994;28;20451;-69
2021/01/15 03:41:04;;;;;;;7.63;5.03;;;1.60;99.90;;;;;;5031432;28;20124;-68
2021/01/15 03:43:30;;;;;;;10.23;5.72;;;1.70;99.90;;;;;;5031717;28;20033;-69
2021/01/15 03:45:56;;;;;;;10.50;5.07;;;1.70;99.90;;;;;;5031757;28;20451;-69
2021/01/15 03:48:22;;;;;;;9.90;5.50;;;1.80;99.90;;;;;;5032753;28;20028;-68
2021/01/15 03:50:49;;;;;;;9.32;5.40;;;1.70;99.90;;;;;;5032014;28;20033;-68
2021/01/15 03:53:15;;;;;;;9.20;5.53;;;1.60;99.90;;;;;;5032353;28;20029;-67
2021/01/15 03:55:41;;;;;;;10.32;6.55;;;1.70;99.90;;;;;;5031935;28;20033;-69
2021/01/15 03:58:07;;;;;;;13.02;6.80;;;1.60;99.90;;;;;;5048081;28;20025;-68
2021/01/15 04:00:33;;;;;;;12.20;5.60;;;1.70;99.90;;;;;;5047115;28;20379;-68
2021/01/15 04:02:58;;;;;;;10.93;5.95;;;1.70;99.90;;;;;;5047283;28;20459;-68
2021/01/15 04:05:24;;;;;;;7.50;5.30;;;1.60;99.90;;;;;;5032164;28;20125;-68
2021/01/15 04:07:50;;;;;;;9.10;6.10;;;1.60;99.90;;;;;;5029239;28;20057;-69
2021/01/15 04:10:19;;;;;;;9.65;5.55;;;1.50;99.90;;;;;;5031726;28;20108;-69
2021/01/15 04:12:45;;;;;;;13.27;7.18;;;1.60;99.90;;;;;;5029867;28;20375;-70
2021/01/15 04:15:15;;;;;;;9.68;5.55;;;1.70;99.90;;;;;;5032289;28;20033;-69
2021/01/15 04:17:42;;;;;;;9.15;5.43;;;1.70;99.90;;;;;;5030315;28;20061;-69
2021/01/15 04:20:10;;;;;;;10.45;5.97;;;1.60;99.90;;;;;;5030327;28;20454;-68
2021/01/15 04:22:44;;;;;;;9.75;6.03;;;1.60;99.90;;;;;;5030098;28;20079;-69
2021/01/15 04:25:10;;;;;;;8.82;6.03;;;1.70;99.90;;;;;;5030393;28;20375;-68
2021/01/15 04:27:37;;;;;;;9.85;5.90;;;1.70;99.90;;;;;;5031405;28;20034;-68
2021/01/15 04:30:05;;;;;;;9.23;6.28;;;1.60;99.90;;;;;;5031533;28;20436;-69
2021/01/15 04:32:31;;;;;;;12.55;6.75;;;1.60;99.90;;;;;;5030995;28;20526;-69
2021/01/15 04:34:57;;;;;;;13.35;6.28;;;1.60;99.90;;;;;;5029722;28;20087;-68
2021/01/15 04:37:23;;;;;;;10.05;6.22;;;1.70;99.90;;;;;;5029917;28;20037;-68
2021/01/15 04:39:49;;;;;;;9.18;5.55;;;1.60;99.90;;;;;;5045918;28;20036;-68
2021/01/15 04:42:16;;;;;;;10.35;6.57;;;1.60;99.90;;;;;;5032170;28;20033;-69
2021/01/15 04:44:45;;;;;;;10.15;6.53;;;1.60;99.90;;;;;;5030807;28;20033;-68
2021/01/15 04:47:11;;;;;;;10.23;5.97;;;1.50;99.90;;;;;;5031598;28;20355;-69
2021/01/15 04:49:39;;;;;;;11.00;5.97;;;1.60;99.90;;;;;;5029764;28;20336;-69
2021/01/15 04:52:13;;;;;;;7.97;5.30;;;1.50;99.90;;;;;;5031960;28;20356;-68
2021/01/15 04:54:53;;;;;;;10.82;6.93;;;1.50;99.90;;;;;;5046569;28;20172;-68
2021/01/15 04:57:19;;;;;;;10.05;6.07;;;1.50;99.90;;;;;;5046816;28;20033;-68
2021/01/15 04:59:47;;;;;;;10.05;6.70;;;1.50;99.90;;;;;;5030713;28;20100;-68
2021/01/15 05:02:16;;;;;;;12.07;6.75;;;1.50;99.90;;;;;;5030972;28;20448;-68
2021/01/15 05:04:42;;;;;;;11.75;7.13;;;1.60;99.90;;;;;;5030649;28;20033;-68
2021/01/15 05:07:10;;;;;;;10.20;6.65;;;1.50;99.90;;;;;;5031079;28;20091;-69
2021/01/15 05:09:44;;;;;;;10.85;6.78;;;1.60;99.90;;;;;;5030310;28;20044;-68
2021/01/15 05:12:15;;;;;;;13.60;7.03;;;1.60;99.90;;;;;;5029831;28;20038;-68
2021/01/15 05:14:50;;;;;;;12.02;7.35;;;1.60;99.90;;;;;;5030691;28;20057;-68
2021/01/15 05:17:17;;;;;;;12.63;7.32;;;1.70;99.90;;;;;;5029769;28;20029;-68
2021/01/15 05:19:43;;;;;;;11.88;7.70;;;1.70;99.90;;;;;;5029941;28;20108;-67
2021/01/15 05:22:14;;;;;;;10.38;7.18;;;1.70;99.90;;;;;;5046432;28;20494;-68
2021/01/15 05:24:40;;;;;;;10.45;7.20;;;1.70;99.90;;;;;;5030577;28;20143;-68
2021/01/15 05:30:18;;;;;;;16.38;7.93;;;1.60;99.90;;;;;;5030333;28;20490;-68
2021/01/15 05:32:45;;;;;;;15.68;8.13;;;1.60;99.90;;;;;;5030324;28;20146;-69
2021/01/15 05:35:12;;;;;;;14.82;6.88;;;1.60;99.90;;;;;;5045616;28;20132;-69
2021/01/15 05:37:37;;;;;;;15.43;6.63;;;1.60;99.90;;;;;;5029985;28;20045;-68
2021/01/15 05:40:05;;;;;;;12.73;6.75;;;1.60;99.90;;;;;;5030747;28;20029;-68
2021/01/15 05:42:45;;;;;;;15.55;7.22;;;1.60;99.90;;;;;;5030838;28;20044;-68
2021/01/15 05:45:14;;;;;;;13.85;7.00;;;1.50;99.90;;;;;;5030862;28;20116;-68
2021/01/15 05:47:47;;;;;;;13.77;7.63;;;1.60;99.90;;;;;;5028667;28;20036;-68
2021/01/15 05:50:13;;;;;;;11.55;7.35;;;1.60;99.90;;;;;;5010772;28;20538;-68
2021/01/15 05:52:58;;;;;;;10.60;6.55;;;1.60;99.90;;;;;;5009061;28;20468;-69
2021/01/15 05:55:25;;;;;;;12.73;7.43;;;1.60;99.90;;;;;;5010780;28;20069;-69
2021/01/15 05:57:51;;;;;;;14.07;7.53;;;1.50;99.90;;;;;;5025225;28;20029;-70
2021/01/15 06:00:29;;;;;;;12.25;7.80;;;1.50;99.90;;;;;;5010715;28;20038;-69
2021/01/15 06:02:58;;;;;;;13.23;7.03;;;1.50;99.90;;;;;;5009839;28;20117;-68
2021/01/15 06:05:25;;;;;;;13.73;7.38;;;1.60;99.90;;;;;;5008707;28;20030;-69
2021/01/15 06:07:58;;;;;;;12.10;7.13;;;1.60;99.90;;;;;;5025007;28;20036;-68
2021/01/15 06:10:25;;;;;;;10.98;7.20;;;1.50;99.90;;;;;;5030390;28;20112;-68
2021/01/15 06:12:51;;;;;;;12.35;7.72;;;1.50;99.90;;;;;;5029324;28;20026;-69
2021/01/15 06:15:17;;;;;;;13.90;7.72;;;1.50;99.90;;;;;;5045204;28;20021;-67
2021/01/15 06:17:49;;;;;;;14.60;8.45;;;1.40;99.90;;;;;;5045336;28;20025;-68
2021/01/15 06:20:19;;;;;;;13.82;8.07;;;1.50;99.90;;;;;;5025555;28;20034;-68
2021/01/15 06:22:54;;;;;;;14.63;8.30;;;1.40;99.90;;;;;;5024936;28;20030;-68
2021/01/15 06:25:36;;;;;;;15.57;8.27;;;1.30;99.90;;;;;;5010808;28;20511;-68
2021/01/15 06:28:04;;;;;;;12.90;7.88;;;1.40;99.90;;;;;;5025303;28;20116;-69
2021/01/15 06:30:32;;;;;;;19.95;10.68;;;1.40;99.90;;;;;;5026330;28;20073;-69
2021/01/15 06:33:15;;;;;;;16.95;9.27;;;1.40;99.90;;;;;;5013543;28;20080;-68
2021/01/15 06:35:43;;;;;;;15.00;9.70;;;1.30;99.90;;;;;;5037007;28;20473;-69
2021/01/15 06:38:10;;;;;;;15.88;8.55;;;1.20;99.90;;;;;;5032858;28;20439;-69
2021/01/15 06:40:38;;;;;;;14.60;7.75;;;1.30;99.90;;;;;;5048811;28;20075;-68
2021/01/15 06:43:10;;;;;;;12.75;7.95;;;1.20;99.90;;;;;;5049710;28;20095;-68
2021/01/15 06:45:47;;;;;;;13.60;9.52;;;1.20;99.90;;;;;;5033995;28;20037;-68
2021/01/15 06:48:26;;;;;;;17.83;9.32;;;1.20;99.90;;;;;;5032282;28;20045;-68
2021/01/15 06:50:54;;;;;;;18.45;10.02;;;1.20;99.90;;;;;;5033061;28;20030;-68
2021/01/15 06:53:27;;;;;;;14.55;8.70;;;1.10;99.90;;;;;;5047910;28;20060;-66
2021/01/15 06:55:54;;;;;;;20.80;10.20;;;1.00;99.90;;;;;;5033261;28;20109;-63
2021/01/15 06:58:28;;;;;;;16.35;8.60;;;2.60;99.90;;;;;;5033407;28;20068;-68
2021/01/15 07:01:14;;;;;;;14.48;7.63;;;2.10;99.90;;;;;;5030381;28;20112;-67
2021/01/15 07:04:16;;;;;;;13.35;7.63;;;1.60;99.90;;;;;;5033242;28;20029;-69
2021/01/15 07:07:00;;;;;;;;;;;1.30;99.90;;;;;;5046942;28;20037;-69
2021/01/15 07:09:29;;;;;;;12.68;7.18;;;1.30;99.90;;;;;;5032507;28;20361;-69
2021/01/15 07:11:56;;;;;;;16.25;8.55;;;1.30;99.90;;;;;;5034060;28;20091;-69
2021/01/15 07:14:43;;;;;;;20.55;10.98;;;1.20;99.90;;;;;;5030626;28;20022;-69
2021/01/15 07:17:28;;;;;;;14.43;8.23;;;1.20;99.90;;;;;;5036523;28;20482;-69
2021/01/15 07:20:09;;;;;;;14.85;7.97;;;1.10;99.90;;;;;;5050797;28;20033;-70
2021/01/15 07:22:37;;;;;;;13.52;7.13;;;1.10;99.90;;;;;;5050940;28;20135;-69
2021/01/15 07:25:05;;;;;;;13.18;8.43;;;1.10;99.90;;;;;;5052009;28;20243;-70
2021/01/15 07:27:33;;;;;;;13.25;7.05;;;0.90;99.90;;;;;;5052362;28;20033;-68
2021/01/15 07:30:00;;;;;;;13.23;7.63;;;1.00;99.90;;;;;;5046735;28;20079;-69
2021/01/15 07:32:29;;;;;;;13.65;7.85;;;1.10;99.90;;;;;;5047581;28;20412;-71
2021/01/15 07:35:00;;;;;;;11.43;6.88;;;1.10;99.90;;;;;;5022936;28;20049;-69
2021/01/15 07:37:31;;;;;;;12.10;6.90;;;1.10;99.90;;;;;;5031825;28;20083;-68
2021/01/15 07:40:02;;;;;;;13.70;7.55;;;1.10;99.90;;;;;;5031921;28;20033;-70
2021/01/15 07:42:57;;;;;;;18.40;7.95;;;1.00;99.90;;;;;;5030953;28;20124;-70
2021/01/15 07:45:25;;;;;;;18.33;8.02;;;1.20;99.90;;;;;;5045857;28;20219;-69
2021/01/15 07:48:01;;;;;;;13.63;7.60;;;1.20;99.90;;;;;;5048687;28;20033;-69
2021/01/15 07:50:33;;;;;;;11.80;6.85;;;1.20;99.90;;;;;;5051081;28;20029;-70
2021/01/15 07:53:17;;;;;;;15.32;8.27;;;1.20;99.90;;;;;;5050958;28;20401;-69
2021/01/15 07:55:59;;;;;;;13.43;7.35;;;1.30;99.90;;;;;;5050205;28;20032;-70
2021/01/15 07:58:37;;;;;;;14.20;7.63;;;1.40;99.90;;;;;;5052635;28;20111;-68
2021/01/15 08:01:14;;;;;;;14.07;8.30;;;1.40;99.90;;;;;;5036301;28;20060;-70
2021/01/15 08:03:49;;;;;;;16.73;8.70;;;1.40;99.90;;;;;;5046679;28;20598;-69
2021/01/15 08:06:19;;;;;;;15.82;8.82;;;1.40;99.90;;;;;;5030338;28;20076;-69
2021/01/15 08:09:05;;;;;;;16.75;9.48;;;1.60;99.90;;;;;;5029772;28;20025;-69
2021/01/15 08:11:36;;;;;;;15.10;8.57;;;1.60;99.90;;;;;;5030537;28;20406;-68
2021/01/15 08:14:14;;;;;;;16.77;9.25;;;1.70;99.90;;;;;;5028938;28;20087;-69
2021/01/15 08:16:42;;;;;;;16.90;9.77;;;1.70;99.90;;;;;;5030163;28;20462;-69
2021/01/15 08:19:15;;;;;;;19.13;9.07;;;1.80;99.90;;;;;;5030198;28;20040;-67
2021/01/15 08:21:42;;;;;;;19.35;9.07;;;1.80;99.90;;;;;;5028884;28;20033;-68
2021/01/15 08:24:09;;;;;;;19.10;9.90;;;1.80;99.90;;;;;;5027883;28;20243;-69
2021/01/15 08:26:52;;;;;;;18.48;10.30;;;1.80;99.90;;;;;;5047030;28;20029;-69
2021/01/15 08:29:20;;;;;;;17.80;9.93;;;1.90;99.90;;;;;;5015378;28;20029;-70
2021/01/15 08:31:47;;;;;;;13.35;8.77;;;1.90;99.90;;;;;;5029477;28;20136;-69
2021/01/15 08:34:15;;;;;;;22.15;10.00;;;1.90;99.90;;;;;;5029536;28;20052;-69
2021/01/15 08:36:42;;;;;;;17.95;9.95;;;2.00;99.90;;;;;;5030323;28;20041;-70
2021/01/15 08:39:11;;;;;;;18.88;9.93;;;2.10;99.90;;;;;;5027256;28;20025;-69
2021/01/15 08:41:38;;;;;;;18.50;10.63;;;2.20;99.90;;;;;;5031862;28;20033;-70
2021/01/15 08:44:05;;;;;;;15.63;9.93;;;2.20;99.90;;;;;;5029927;28;20439;-68
2021/01/15 08:46:32;;;;;;;17.10;10.00;;;2.40;99.90;;;;;;5045879;28;20022;-69
2021/01/15 08:48:59;;;;;;;18.67;10.25;;;2.30;99.90;;;;;;5043723;28;20025;-69
2021/01/15 08:51:28;;;;;;;21.65;10.18;;;2.50;99.90;;;;;;5042064;28;20048;-69
2021/01/15 08:54:04;;;;;;;21.80;10.95;;;2.60;99.90;;;;;;5027825;28;20034;-69
2021/01/15 08:56:49;;;;;;;15.98;10.38;;;2.80;99.90;;;;;;5028811;28;20388;-69
2021/01/15 08:59:28;;;;;;;22.02;9.82;;;2.70;99.90;;;;;;5030458;28;20032;-68
2021/01/15 09:02:01;;;;;;;27.33;11.70;;;2.60;99.90;;;;;;5028381;28;20045;-68
2021/01/15 09:04:29;;;;;;;23.38;10.82;;;2.80;99.90;;;;;;5025454;28;20070;-70
2021/01/15 09:06:58;;;;;;;15.20;8.88;;;2.70;99.90;;;;;;5018373;28;20581;-69
2021/01/15 09:09:25;;;;;;;17.45;9.85;;;2.90;99.90;;;;;;5027086;28;20036;-69
2021/01/15 09:11:53;;;;;;;18.40;10.43;;;3.00;99.90;;;;;;5023085;28;20164;-70
2021/01/15 09:14:24;;;;;;;23.55;9.50;;;3.10;99.90;;;;;;5019067;28;20140;-69
2021/01/15 09:16:54;;;;;;;17.77;10.07;;;3.10;99.90;;;;;;5009015;28;20048;-69
2021/01/15 09:19:21;;;;;;;19.17;9.27;;;3.10;99.90;;;;;;5018671;28;20034;-68
2021/01/15 09:21:51;;;;;;;15.10;9.48;;;3.10;99.90;;;;;;5022446;28;20039;-69
2021/01/15 09:24:20;;;;;;;13.65;8.55;;;3.10;99.90;;;;;;5021939;28;20061;-68
2021/01/15 09:26:48;;;;;;;16.27;8.88;;;3.20;99.90;;;;;;5017799;28;20378;-69
2021/01/15 09:29:14;;;;;;;16.27;9.93;;;3.10;99.90;;;;;;5018122;28;20037;-69
2021/01/15 09:31:43;;;;;;;18.90;10.65;;;3.30;99.90;;;;;;5018069;28;20487;-70
2021/01/15 09:34:15;;;;;;;20.13;11.43;;;3.20;99.90;;;;;;5020143;28;20077;-70
2021/01/15 09:36:43;;;;;;;16.33;8.77;;;3.10;99.90;;;;;;5017578;28;20022;-70
2021/01/15 09:39:10;;;;;;;17.33;9.88;;;3.00;99.90;;;;;;5018319;28;20034;-70
2021/01/15 09:41:43;;;;;;;19.05;8.23;;;3.20;99.90;;;;;;5018362;28;20380;-72
2021/01/15 09:44:08;;;;;;;14.30;9.18;;;3.20;99.90;;;;;;5015976;28;20033;-70
2021/01/15 09:46:34;;;;;;;16.02;8.70;;;3.30;99.90;;;;;;5018359;28;20391;-68
2021/01/15 09:49:00;;;;;;;14.40;8.80;;;3.50;99.90;;;;;;5016912;28;20064;-69
2021/01/15 09:51:28;;;;;;;16.67;8.45;;;3.30;99.90;;;;;;5021698;28;20083;-69
2021/01/15 09:53:56;;;;;;;12.70;8.75;;;3.40;99.90;;;;;;5018049;28;20123;-70
2021/01/15 09:56:29;;;;;;;16.33;8.50;;;3.40;99.90;;;;;;5009260;28;20041;-68
2021/01/15 09:58:57;;;;;;;17.58;9.40;;;3.40;99.90;;;;;;5029151;28;20022;-68
2021/01/15 10:01:24;;;;;;;16.75;9.38;;;3.40;99.90;;;;;;5027731;28;20053;-68
2021/01/15 10:03:50;;;;;;;15.65;8.85;;;3.20;99.90;;;;;;5054782;28;20033;-68
2021/01/15 10:06:17;;;;;;;15.73;8.98;;;3.30;99.90;;;;;;5045101;28;20116;-69
2021/01/15 10:08:44;;;;;;;18.95;9.05;;;3.20;99.90;;;;;;5015540;28;20022;-68
2021/01/15 10:11:22;;;;;;;17.13;9.98;;;3.40;99.90;;;;;;5013137;28;20089;-68
2021/01/15 10:13:48;;;;;;;15.02;8.52;;;3.40;99.90;;;;;;5012623;28;20409;-70
2021/01/15 10:16:14;;;;;;;15.50;8.68;;;3.30;99.90;;;;;;5016148;28;20061;-68
2021/01/15 10:18:40;;;;;;;16.15;9.60;;;3.40;99.90;;;;;;5017469;28;20034;-70
2021/01/15 10:21:07;;;;;;;15.52;9.75;;;3.60;99.90;;;;;;5012152;28;20125;-69
2021/01/15 10:23:37;;;;;;;17.20;8.93;;;3.40;99.90;;;;;;5012418;28;20030;-73
2021/01/15 10:26:04;;;;;;;18.20;9.95;;;3.50;99.90;;;;;;5018834;28;20083;-70
2021/01/15 10:28:30;;;;;;;14.60;8.93;;;3.50;99.90;;;;;;5032987;28;20408;-69
2021/01/15 10:30:56;;;;;;;15.18;9.77;;;3.70;99.90;;;;;;5031502;28;20034;-70
2021/01/15 10:33:23;;;;;;;14.02;9.30;;;3.70;99.90;;;;;;5048256;28;20033;-70
2021/01/15 10:35:50;;;;;;;22.42;9.07;;;3.70;99.90;;;;;;5027852;28;20460;-74
2021/01/15 10:38:16;;;;;;;23.52;10.52;;;3.70;99.90;;;;;;5027900;28;20025;-69
2021/01/15 10:40:44;;;;;;;13.93;8.60;;;3.70;99.90;;;;;;5031668;28;20142;-70
2021/01/15 10:43:09;;;;;;;18.17;9.57;;;3.70;99.90;;;;;;5048846;28;20039;-71
2021/01/15 10:45:35;;;;;;;20.15;9.73;;;3.70;99.90;;;;;;5038739;28;20029;-71
2021/01/15 10:48:03;;;;;;;18.92;9.52;;;3.80;99.90;;;;;;5034572;28;20101;-70
2021/01/15 10:50:30;;;;;;;15.60;9.32;;;3.80;99.90;;;;;;5031875;28;20038;-69
2021/01/15 10:52:56;;;;;;;17.60;9.75;;;3.70;99.90;;;;;;5030808;28;20062;-69
2021/01/15 10:55:22;;;;;;;16.80;8.68;;;3.80;99.90;;;;;;5047511;28;20438;-70
2021/01/15 10:57:48;;;;;;;16.42;9.93;;;3.70;99.90;;;;;;5032340;28;20026;-69
2021/01/15 11:00:18;;;;;;;19.10;11.32;;;3.70;99.90;;;;;;5029626;28;20211;-69
2021/01/15 11:02:48;;;;;;;19.13;10.30;;;3.70;99.90;;;;;;5032992;28;20033;-70
2021/01/15 11:05:14;;;;;;;27.17;12.93;;;3.70;99.90;;;;;;5047580;28;20624;-70
2021/01/15 11:07:41;;;;;;;18.08;10.63;;;3.70;99.90;;;;;;5030344;28;20113;-69
2021/01/15 11:10:08;;;;;;;20.33;11.15;;;3.70;99.90;;;;;;5032688;28;20033;-70
2021/01/15 11:12:33;;;;;;;19.90;10.80;;;3.70;99.90;;;;;;5030730;28;20037;-70
2021/01/15 11:14:59;;;;;;;20.98;10.93;;;3.60;99.90;;;;;;5031549;28;20459;-70
2021/01/15 11:17:25;;;;;;;22.17;12.35;;;3.70;99.90;;;;;;5029490;28;20371;-70
2021/01/15 11:19:51;;;;;;;17.40;11.68;;;3.80;99.90;;;;;;5031832;28;20083;-71
2021/01/15 11:22:17;;;;;;;17.00;10.95;;;3.80;99.90;;;;;;5031700;28;20123;-71
2021/01/15 11:24:42;;;;;;;19.80;11.32;;;3.90;99.90;;;;;;5030686;28;20029;-70
2021/01/15 11:27:08;;;;;;;21.83;10.10;;;3.90;99.90;;;;;;5031274;28;20116;-70
2021/01/15 11:29:34;;;;;;;23.55;11.63;;;3.70;99.90;;;;;;5031560;28;20040;-71
2021/01/15 11:31:59;;;;;;;16.40;11.07;;;3.60;99.90;;;;;;5030159;28;20490;-72
2021/01/15 11:34:25;;;;;;;21.15;11.07;;;3.80;99.90;;;;;;5030583;28;20434;-71
2021/01/15 11:36:51;;;;;;;21.02;10.82;;;3.80;99.90;;;;;;5030328;28;20558;-70
2021/01/15 11:39:17;;;;;;;20.83;11.88;;;3.60;99.90;;;;;;5029775;28;20204;-70
2021/01/15 11:41:43;;;;;;;20.30;11.88;;;3.60;99.90;;;;;;5032227;28;20029;-73
2021/01/15 11:44:12;;;;;;;18.98;11.35;;;3.70;99.90;;;;;;5031750;28;20034;-72
2021/01/15 11:46:38;;;;;;;22.38;12.35;;;3.80;99.90;;;;;;5031808;28;20463;-70
2021/01/15 11:49:04;;;;;;;21.05;11.50;;;3.90;99.90;;;;;;5029899;28;20036;-70
2021/01/15 11:51:30;;;;;;;27.42;13.45;;;3.70;99.90;;;;;;5031938;28;20537;-71
2021/01/15 11:53:56;;;;;;;24.05;12.30;;;3.90;99.90;;;;;;5045940;28;20025;-70
2021/01/15 11:56:22;;;;;;;18.08;11.38;;;4.00;99.90;;;;;;5030873;28;20080;-70
2021/01/15 11:58:48;;;;;;;24.08;12.32;;;4.00;99.90;;;;;;5029667;28;20502;-71
2021/01/15 12:01:17;;;;;;;19.20;11.88;;;4.10;99.90;;;;;;5030099;28;20033;-71
2021/01/15 12:03:43;;;;;;;23.23;10.88;;;4.10;99.90;;;;;;5029757;28;20030;-70
2021/01/15 12:06:12;;;;;;;24.38;12.57;;;4.10;99.90;;;;;;5029248;28;20146;-70
2021/01/15 12:08:39;;;;;;;20.65;12.25;;;4.00;99.90;;;;;;5047064;28;20025;-70
2021/01/15 12:11:07;;;;;;;23.27;12.13;;;4.00;99.90;;;;;;5029646;28;20167;-71
2021/01/15 12:13:35;;;;;;;26.40;12.25;;;4.00;99.90;;;;;;5029823;28;20428;-71
2021/01/15 12:16:01;;;;;;;20.30;12.45;;;3.90;99.90;;;;;;5030272;28;20029;-70
2021/01/15 12:18:27;;;;;;;21.75;12.25;;;4.00;99.90;;;;;;5029748;28;20082;-71
2021/01/15 12:20:53;;;;;;;23.75;12.35;;;3.90;99.90;;;;;;5029689;28;20355;-70
2021/01/15 12:23:19;;;;;;;24.83;12.48;;;3.90;99.90;;;;;;5030008;28;20029;-72
2021/01/15 12:25:45;;;;;;;22.33;12.80;;;3.90;99.90;;;;;;5031908;28;20029;-70
2021/01/15 12:28:16;;;;;;;28.17;13.13;;;3.90;99.90;;;;;;5030303;28;20108;-70
2021/01/15 12:30:45;;;;;;;18.48;11.23;;;3.90;99.90;;;;;;5030197;28;20029;-70
2021/01/15 12:33:15;;;;;;;20.27;11.85;;;3.90;99.90;;;;;;5029497;28;20531;-71
2021/01/15 12:35:42;;;;;;;21.10;11.73;;;4.00;99.90;;;;;;5030328;28;20116;-70
2021/01/15 12:38:10;;;;;;;21.92;12.43;;;3.90;99.90;;;;;;5028433;28;20029;-70
2021/01/15 12:40:37;;;;;;;25.17;13.55;;;3.90;99.90;;;;;;5030711;28;20071;-71
2021/01/15 12:43:07;;;;;;;21.52;12.93;;;4.00;99.90;;;;;;5029378;28;20124;-69
2021/01/15 12:45:37;;;;;;;19.77;11.95;;;4.00;99.90;;;;;;5030281;28;20026;-70
2021/01/15 12:48:04;;;;;;;17.92;11.13;;;4.00;99.90;;;;;;5029522;28;20477;-69
2021/01/15 12:50:30;;;;;;;22.48;11.95;;;3.90;99.90;;;;;;5025933;28;20036;-70
2021/01/15 12:52:55;;;;;;;21.67;12.52;;;3.90;99.90;;;;;;5031807;28;20025;-70
2021/01/15 12:55:22;;;;;;;19.73;11.75;;;3.90;99.90;;;;;;5029960;28;20025;-69
2021/01/15 12:57:49;;;;;;;18.30;11.20;;;4.00;99.90;;;;;;5029653;28;20032;-70
2021/01/15 13:00:15;;;;;;;20.02;12.07;;;4.10;99.90;;;;;;5027387;28;20109;-69
2021/01/15 13:02:42;;;;;;;24.75;12.75;;;4.00;99.90;;;;;;5029488;28;20059;-69